sensor_id;sensor_type;location;lat;lon;timestamp;pressure;altitude;pressure_sealevel;temperature;humidity
25232;BME280;13176;51.140;6.290;2022-09-09T00:04:01;100144.34;;;19.33;90.35
25232;BME280;13176;51.140;6.290;2022-09-09T00:06:35;100182.38;;;19.46;90.84
25232;BME280;13176;51.140;6.290;2022-09-09T00:09:10;100168.56;;;19.41;90.23
25232;BME280;13176;51.140;6.290;2022-09-09T00:17:36;100169.91;;;19.48;89.71
25232;BME280;13176;51.140;6.290;2022-09-09T00:20:13;100170.84;;;19.47;90.23
25232;BME280;13176;51.140;6.290;2022-09-09T00:22:45;100158.91;;;19.40;89.44
25232;BME280;13176;51.140;6.290;2022-09-09T00:25:27;100140.09;;;19.30;89.36
25232;BME280;13176;51.140;6.290;2022-09-09T00:27:55;100136.50;;;19.31;89.64
25232;BME280;13176;51.140;6.290;2022-09-09T00:30:26;100152.69;;;19.41;89.34
25232;BME280;13176;51.140;6.290;2022-09-09T00:32:59;100157.97;;;19.41;90.00
25232;BME280;13176;51.140;6.290;2022-09-09T00:35:31;100158.75;;;19.43;90.28
25232;BME280;13176;51.140;6.290;2022-09-09T00:38:08;100159.84;;;19.39;89.65
25232;BME280;13176;51.140;6.290;2022-09-09T00:40:44;100142.84;;;19.29;89.43
25232;BME280;13176;51.140;6.290;2022-09-09T00:43:30;100153.38;;;19.44;89.68
25232;BME280;13176;51.140;6.290;2022-09-09T00:46:21;100146.03;;;19.34;89.21
25232;BME280;13176;51.140;6.290;2022-09-09T00:51:44;100160.13;;;19.34;90.67
25232;BME280;13176;51.140;6.290;2022-09-09T00:54:33;100157.66;;;19.31;90.99
25232;BME280;13176;51.140;6.290;2022-09-09T00:57:11;100150.50;;;19.33;90.81
25232;BME280;13176;51.140;6.290;2022-09-09T00:59:48;100161.16;;;19.32;90.54
25232;BME280;13176;51.140;6.290;2022-09-09T01:02:29;100147.09;;;19.31;89.85
25232;BME280;13176;51.140;6.290;2022-09-09T01:05:24;100141.13;;;19.28;90.84
25232;BME280;13176;51.140;6.290;2022-09-09T01:07:53;100136.19;;;19.22;90.81
25232;BME280;13176;51.140;6.290;2022-09-09T01:10:50;100143.19;;;19.23;90.14
25232;BME280;13176;51.140;6.290;2022-09-09T01:13:34;100143.19;;;19.23;90.38
25232;BME280;13176;51.140;6.290;2022-09-09T01:16:04;100152.06;;;19.22;90.63
25232;BME280;13176;51.140;6.290;2022-09-09T01:18:34;100144.28;;;19.19;90.63
25232;BME280;13176;51.140;6.290;2022-09-09T01:26:35;100133.13;;;19.14;90.47
25232;BME280;13176;51.140;6.290;2022-09-09T01:29:08;100147.78;;;19.19;89.79
25232;BME280;13176;51.140;6.290;2022-09-09T01:31:58;100144.38;;;19.17;90.36
25232;BME280;13176;51.140;6.290;2022-09-09T01:34:32;100136.84;;;19.10;90.71
25232;BME280;13176;51.140;6.290;2022-09-09T01:37:11;100134.47;;;19.05;90.59
25232;BME280;13176;51.140;6.290;2022-09-09T01:39:40;100136.94;;;19.08;90.66
25232;BME280;13176;51.140;6.290;2022-09-09T01:42:09;100141.19;;;19.11;90.83
25232;BME280;13176;51.140;6.290;2022-09-09T01:44:38;100131.72;;;19.07;90.42
25232;BME280;13176;51.140;6.290;2022-09-09T01:47:05;100137.13;;;19.05;90.45
25232;BME280;13176;51.140;6.290;2022-09-09T01:49:32;100151.00;;;19.09;90.24
25232;BME280;13176;51.140;6.290;2022-09-09T01:51:59;100140.53;;;19.07;90.07
25232;BME280;13176;51.140;6.290;2022-09-09T01:54:28;100140.13;;;19.15;89.98
25232;BME280;13176;51.140;6.290;2022-09-09T01:57:14;100140.44;;;19.24;88.77
25232;BME280;13176;51.140;6.290;2022-09-09T02:02:51;100133.16;;;19.12;90.39
25232;BME280;13176;51.140;6.290;2022-09-09T02:05:41;100141.19;;;19.11;90.00
25232;BME280;13176;51.140;6.290;2022-09-09T02:08:17;100140.59;;;19.06;89.19
25232;BME280;13176;51.140;6.290;2022-09-09T02:13:38;100140.34;;;19.26;88.65
25232;BME280;13176;51.140;6.290;2022-09-09T02:16:19;100118.78;;;19.18;88.24
25232;BME280;13176;51.140;6.290;2022-09-09T02:19:13;100081.91;;;19.15;86.86
25232;BME280;13176;51.140;6.290;2022-09-09T02:21:42;100128.44;;;19.33;86.74
25232;BME280;13176;51.140;6.290;2022-09-09T02:24:10;100089.22;;;19.10;87.74
25232;BME280;13176;51.140;6.290;2022-09-09T02:26:42;100136.81;;;19.41;86.65
25232;BME280;13176;51.140;6.290;2022-09-09T02:29:13;100134.22;;;19.54;86.46
25232;BME280;13176;51.140;6.290;2022-09-09T02:31:41;100086.81;;;19.36;86.20
25232;BME280;13176;51.140;6.290;2022-09-09T02:34:11;100090.88;;;19.42;85.76
25232;BME280;13176;51.140;6.290;2022-09-09T02:36:40;100116.81;;;19.51;85.91
25232;BME280;13176;51.140;6.290;2022-09-09T02:39:10;100117.47;;;19.54;86.13
25232;BME280;13176;51.140;6.290;2022-09-09T02:41:39;100077.06;;;19.37;86.08
25232;BME280;13176;51.140;6.290;2022-09-09T02:44:14;100121.38;;;19.62;85.73
25232;BME280;13176;51.140;6.290;2022-09-09T02:49:14;100119.09;;;19.56;85.96
25232;BME280;13176;51.140;6.290;2022-09-09T02:52:02;100118.69;;;19.49;86.77
25232;BME280;13176;51.140;6.290;2022-09-09T02:54:33;100098.19;;;19.23;87.09
25232;BME280;13176;51.140;6.290;2022-09-09T02:57:04;100121.88;;;19.40;86.83
25232;BME280;13176;51.140;6.290;2022-09-09T02:59:33;100103.38;;;19.24;87.11
25232;BME280;13176;51.140;6.290;2022-09-09T03:01:59;100097.50;;;19.19;87.12
25232;BME280;13176;51.140;6.290;2022-09-09T03:04:26;100102.00;;;19.33;86.55
25232;BME280;13176;51.140;6.290;2022-09-09T03:06:52;100082.03;;;19.27;86.17
25232;BME280;13176;51.140;6.290;2022-09-09T03:09:19;100105.91;;;19.41;85.87
25232;BME280;13176;51.140;6.290;2022-09-09T03:11:45;100111.50;;;19.51;85.83
25232;BME280;13176;51.140;6.290;2022-09-09T03:14:12;100092.41;;;19.46;84.85
25232;BME280;13176;51.140;6.290;2022-09-09T03:16:38;100063.63;;;19.26;85.53
25232;BME280;13176;51.140;6.290;2022-09-09T03:19:05;100076.09;;;19.24;85.99
25232;BME280;13176;51.140;6.290;2022-09-09T03:21:32;100081.91;;;19.15;86.55
25232;BME280;13176;51.140;6.290;2022-09-09T03:23:59;100094.97;;;19.18;87.27
25232;BME280;13176;51.140;6.290;2022-09-09T03:26:25;100051.03;;;19.00;86.76
25232;BME280;13176;51.140;6.290;2022-09-09T03:28:52;100086.69;;;19.08;86.91
25232;BME280;13176;51.140;6.290;2022-09-09T03:31:19;100057.72;;;18.91;87.08
25232;BME280;13176;51.140;6.290;2022-09-09T03:33:45;100056.31;;;19.00;86.78
25232;BME280;13176;51.140;6.290;2022-09-09T03:36:12;100112.91;;;19.42;86.18
25232;BME280;13176;51.140;6.290;2022-09-09T03:38:38;100074.94;;;19.14;85.96
25232;BME280;13176;51.140;6.290;2022-09-09T03:41:05;100073.97;;;19.15;86.25
25232;BME280;13176;51.140;6.290;2022-09-09T03:43:32;100117.69;;;19.36;86.82
25232;BME280;13176;51.140;6.290;2022-09-09T03:45:59;100085.63;;;19.26;86.50
25232;BME280;13176;51.140;6.290;2022-09-09T03:48:26;100102.50;;;19.39;86.19
25232;BME280;13176;51.140;6.290;2022-09-09T03:50:54;100090.88;;;19.42;85.59
25232;BME280;13176;51.140;6.290;2022-09-09T03:53:23;100061.84;;;19.11;85.76
25232;BME280;13176;51.140;6.290;2022-09-09T03:55:53;100101.06;;;19.34;86.26
25232;BME280;13176;51.140;6.290;2022-09-09T03:58:26;100085.16;;;19.34;85.97
25232;BME280;13176;51.140;6.290;2022-09-09T04:00:55;100124.56;;;19.53;86.25
25232;BME280;13176;51.140;6.290;2022-09-09T04:03:23;100066.66;;;19.34;85.44
25232;BME280;13176;51.140;6.290;2022-09-09T04:05:54;100114.91;;;19.52;85.39
25232;BME280;13176;51.140;6.290;2022-09-09T04:08:22;100064.34;;;19.14;86.14
25232;BME280;13176;51.140;6.290;2022-09-09T04:10:52;100066.06;;;19.15;86.25
25232;BME280;13176;51.140;6.290;2022-09-09T04:13:19;100073.03;;;19.16;86.48
25232;BME280;13176;51.140;6.290;2022-09-09T04:15:53;100095.31;;;19.41;85.87
25232;BME280;13176;51.140;6.290;2022-09-09T04:18:20;100114.34;;;19.48;85.86
25232;BME280;13176;51.140;6.290;2022-09-09T04:20:48;100067.22;;;19.25;86.02
25232;BME280;13176;51.140;6.290;2022-09-09T04:23:14;100099.75;;;19.41;85.47
25232;BME280;13176;51.140;6.290;2022-09-09T04:25:46;100091.81;;;19.41;85.85
25232;BME280;13176;51.140;6.290;2022-09-09T04:28:14;100086.91;;;19.49;85.77
25232;BME280;13176;51.140;6.290;2022-09-09T04:30:41;100120.63;;;19.60;85.60
25232;BME280;13176;51.140;6.290;2022-09-09T04:33:08;100097.31;;;19.52;85.62
25232;BME280;13176;51.140;6.290;2022-09-09T04:35:36;100108.75;;;19.52;85.72
25232;BME280;13176;51.140;6.290;2022-09-09T04:38:04;100100.91;;;19.51;85.37
25232;BME280;13176;51.140;6.290;2022-09-09T04:40:31;100096.16;;;19.42;86.03
25232;BME280;13176;51.140;6.290;2022-09-09T04:42:58;100104.69;;;19.47;85.91
25232;BME280;13176;51.140;6.290;2022-09-09T04:45:25;100066.47;;;19.23;86.17
25232;BME280;13176;51.140;6.290;2022-09-09T04:47:52;100117.63;;;19.51;86.13
25232;BME280;13176;51.140;6.290;2022-09-09T04:50:20;100095.69;;;19.35;86.32
25232;BME280;13176;51.140;6.290;2022-09-09T04:52:46;100112.16;;;19.54;86.61
25232;BME280;13176;51.140;6.290;2022-09-09T04:55:13;100121.81;;;19.55;85.75
25232;BME280;13176;51.140;6.290;2022-09-09T04:57:39;100097.22;;;19.53;85.51
25232;BME280;13176;51.140;6.290;2022-09-09T05:00:06;100091.84;;;19.54;85.21
25232;BME280;13176;51.140;6.290;2022-09-09T05:02:37;100111.81;;;19.60;84.79
25232;BME280;13176;51.140;6.290;2022-09-09T05:05:05;100112.28;;;19.66;85.16
25232;BME280;13176;51.140;6.290;2022-09-09T05:07:32;100109.69;;;19.51;84.91
25232;BME280;13176;51.140;6.290;2022-09-09T05:09:58;100052.19;;;19.10;85.67
25232;BME280;13176;51.140;6.290;2022-09-09T05:12:25;100101.69;;;19.52;85.75
25232;BME280;13176;51.140;6.290;2022-09-09T05:14:52;100097.50;;;19.49;85.40
25232;BME280;13176;51.140;6.290;2022-09-09T05:17:18;100104.16;;;19.55;84.62
25232;BME280;13176;51.140;6.290;2022-09-09T05:19:45;100122.03;;;19.66;84.21
25232;BME280;13176;51.140;6.290;2022-09-09T05:22:11;100115.38;;;19.59;84.29
25232;BME280;13176;51.140;6.290;2022-09-09T05:24:38;100110.47;;;19.53;84.48
25232;BME280;13176;51.140;6.290;2022-09-09T05:27:05;100109.63;;;19.52;84.57
25232;BME280;13176;51.140;6.290;2022-09-09T05:29:32;100112.28;;;19.52;84.04
25232;BME280;13176;51.140;6.290;2022-09-09T05:31:59;100103.63;;;19.49;84.49
25232;BME280;13176;51.140;6.290;2022-09-09T05:34:26;100095.81;;;19.48;84.54
25232;BME280;13176;51.140;6.290;2022-09-09T05:36:53;100094.63;;;19.38;84.88
25232;BME280;13176;51.140;6.290;2022-09-09T05:39:19;100098.56;;;19.46;85.13
25232;BME280;13176;51.140;6.290;2022-09-09T05:41:46;100107.91;;;19.52;84.88
25232;BME280;13176;51.140;6.290;2022-09-09T05:44:12;100123.25;;;19.60;84.54
25232;BME280;13176;51.140;6.290;2022-09-09T05:46:39;100110.59;;;19.65;84.52
25232;BME280;13176;51.140;6.290;2022-09-09T05:49:06;100118.16;;;19.57;84.31
25232;BME280;13176;51.140;6.290;2022-09-09T05:51:32;100095.41;;;19.40;84.90
25232;BME280;13176;51.140;6.290;2022-09-09T05:53:58;100094.63;;;19.38;84.11
25232;BME280;13176;51.140;6.290;2022-09-09T05:56:27;100099.03;;;19.52;84.62
25232;BME280;13176;51.140;6.290;2022-09-09T05:58:54;100084.06;;;19.38;83.85
25232;BME280;13176;51.140;6.290;2022-09-09T06:03:50;100127.66;;;19.46;83.51
25232;BME280;13176;51.140;6.290;2022-09-09T06:06:23;100089.91;;;19.29;83.55
25232;BME280;13176;51.140;6.290;2022-09-09T06:08:51;100102.50;;;19.39;83.76
25232;BME280;13176;51.140;6.290;2022-09-09T06:11:21;100125.16;;;19.58;83.59
25232;BME280;13176;51.140;6.290;2022-09-09T06:13:49;100041.97;;;19.04;82.68
25232;BME280;13176;51.140;6.290;2022-09-09T06:16:21;100128.72;;;19.57;82.84
25232;BME280;13176;51.140;6.290;2022-09-09T06:18:50;100128.16;;;19.52;82.89
25232;BME280;13176;51.140;6.290;2022-09-09T06:21:22;100116.97;;;19.48;82.03
25232;BME280;13176;51.140;6.290;2022-09-09T06:23:48;100113.75;;;19.43;81.70
25232;BME280;13176;51.140;6.290;2022-09-09T06:26:20;100112.41;;;19.36;81.78
25232;BME280;13176;51.140;6.290;2022-09-09T06:28:48;100134.69;;;19.61;82.63
25232;BME280;13176;51.140;6.290;2022-09-09T06:31:17;100128.16;;;19.66;81.73
25232;BME280;13176;51.140;6.290;2022-09-09T06:33:44;100121.19;;;19.65;82.13
25232;BME280;13176;51.140;6.290;2022-09-09T06:36:15;100120.81;;;19.71;82.76
25232;BME280;13176;51.140;6.290;2022-09-09T06:38:42;100111.31;;;19.53;81.95
25232;BME280;13176;51.140;6.290;2022-09-09T06:41:09;100130.44;;;19.58;82.17
25232;BME280;13176;51.140;6.290;2022-09-09T06:43:36;100127.56;;;19.48;80.86
25232;BME280;13176;51.140;6.290;2022-09-09T06:48:31;100101.63;;;19.39;81.39
25232;BME280;13176;51.140;6.290;2022-09-09T06:51:06;100122.69;;;19.55;81.79
25232;BME280;13176;51.140;6.290;2022-09-09T06:53:35;100127.16;;;19.40;80.76
25232;BME280;13176;51.140;6.290;2022-09-09T06:56:02;100106.94;;;19.39;81.04
25232;BME280;13176;51.140;6.290;2022-09-09T06:58:44;100130.97;;;19.50;79.71
25232;BME280;13176;51.140;6.290;2022-09-09T07:01:13;100084.63;;;19.43;80.47
25232;BME280;13176;51.140;6.290;2022-09-09T07:03:40;100136.25;;;19.79;81.09
25232;BME280;13176;51.140;6.290;2022-09-09T07:06:19;100126.50;;;19.65;79.25
25232;BME280;13176;51.140;6.290;2022-09-09T07:08:55;100120.31;;;19.65;78.49
25232;BME280;13176;51.140;6.290;2022-09-09T07:11:24;100136.22;;;19.65;77.14
25232;BME280;13176;51.140;6.290;2022-09-09T07:13:53;100136.69;;;19.71;76.69
25232;BME280;13176;51.140;6.290;2022-09-09T07:16:21;100129.94;;;19.95;77.54
25232;BME280;13176;51.140;6.290;2022-09-09T07:18:50;100105.50;;;19.90;76.76
25232;BME280;13176;51.140;6.290;2022-09-09T07:21:17;100080.31;;;19.69;76.12
25232;BME280;13176;51.140;6.290;2022-09-09T07:23:45;100098.31;;;19.92;76.82
25232;BME280;13176;51.140;6.290;2022-09-09T07:26:17;100113.09;;;19.96;75.81
25232;BME280;13176;51.140;6.290;2022-09-09T07:28:46;100077.50;;;19.86;76.43
25232;BME280;13176;51.140;6.290;2022-09-09T07:31:17;100131.09;;;20.05;75.08
25232;BME280;13176;51.140;6.290;2022-09-09T07:33:44;100117.84;;;20.05;75.24
25232;BME280;13176;51.140;6.290;2022-09-09T07:36:20;100112.16;;;19.97;74.95
25232;BME280;13176;51.140;6.290;2022-09-09T07:38:58;100120.28;;;20.08;75.71
25232;BME280;13176;51.140;6.290;2022-09-09T07:41:34;100130.78;;;20.24;75.13
25232;BME280;13176;51.140;6.290;2022-09-09T07:44:11;100130.53;;;20.28;74.08
25232;BME280;13176;51.140;6.290;2022-09-09T07:46:38;100132.31;;;20.28;73.70
25232;BME280;13176;51.140;6.290;2022-09-09T07:49:06;100126.94;;;20.29;74.11
25232;BME280;13176;51.140;6.290;2022-09-09T07:51:35;100107.81;;;20.10;73.05
25232;BME280;13176;51.140;6.290;2022-09-09T07:54:06;100126.75;;;20.32;73.78
25232;BME280;13176;51.140;6.290;2022-09-09T07:56:33;100132.81;;;20.34;73.66
25232;BME280;13176;51.140;6.290;2022-09-09T07:59:00;100125.19;;;20.42;73.50
25232;BME280;13176;51.140;6.290;2022-09-09T08:01:36;100129.09;;;20.51;73.54
25232;BME280;13176;51.140;6.290;2022-09-09T08:04:07;100128.22;;;20.50;72.02
25232;BME280;13176;51.140;6.290;2022-09-09T08:06:38;100121.22;;;20.49;72.11
25232;BME280;13176;51.140;6.290;2022-09-09T08:09:07;100134.25;;;20.80;72.96
25232;BME280;13176;51.140;6.290;2022-09-09T08:11:34;100139.19;;;20.72;71.25
25232;BME280;13176;51.140;6.290;2022-09-09T08:14:05;100122.09;;;20.76;70.42
25232;BME280;13176;51.140;6.290;2022-09-09T08:16:35;100133.81;;;21.00;71.43
25232;BME280;13176;51.140;6.290;2022-09-09T08:19:03;100101.47;;;20.81;70.30
25232;BME280;13176;51.140;6.290;2022-09-09T08:21:31;100153.34;;;20.99;70.32
25232;BME280;13176;51.140;6.290;2022-09-09T08:24:01;100130.25;;;20.87;68.08
25232;BME280;13176;51.140;6.290;2022-09-09T08:26:30;100148.81;;;20.87;67.60
25232;BME280;13176;51.140;6.290;2022-09-09T08:28:58;100143.88;;;20.95;68.04
25232;BME280;13176;51.140;6.290;2022-09-09T08:31:28;100149.56;;;21.03;67.01
25232;BME280;13176;51.140;6.290;2022-09-09T08:33:55;100155.94;;;21.13;66.41
25232;BME280;13176;51.140;6.290;2022-09-09T08:36:24;100171.47;;;21.19;65.70
25232;BME280;13176;51.140;6.290;2022-09-09T08:38:54;100165.66;;;21.00;65.38
25232;BME280;13176;51.140;6.290;2022-09-09T08:52:25;100181.25;;;21.45;63.61
25232;BME280;13176;51.140;6.290;2022-09-09T08:54:56;100157.91;;;21.23;63.26
25232;BME280;13176;51.140;6.290;2022-09-09T08:57:27;100184.50;;;21.36;63.28
25232;BME280;13176;51.140;6.290;2022-09-09T08:59:55;100177.91;;;21.41;63.32
25232;BME280;13176;51.140;6.290;2022-09-09T09:02:46;100185.81;;;21.43;63.05
25232;BME280;13176;51.140;6.290;2022-09-09T09:05:24;100179.00;;;21.39;63.80
25232;BME280;13176;51.140;6.290;2022-09-09T09:08:13;100171.97;;;21.38;63.54
25232;BME280;13176;51.140;6.290;2022-09-09T09:10:49;100183.84;;;21.32;62.77
25232;BME280;13176;51.140;6.290;2022-09-09T09:16:21;100155.38;;;21.61;62.40
25232;BME280;13176;51.140;6.290;2022-09-09T09:18:49;100175.00;;;21.85;62.30
25232;BME280;13176;51.140;6.290;2022-09-09T09:21:36;100168.81;;;21.96;62.02
25232;BME280;13176;51.140;6.290;2022-09-09T09:24:10;100169.97;;;21.92;60.82
25232;BME280;13176;51.140;6.290;2022-09-09T09:26:47;100164.03;;;21.89;60.41
25232;BME280;13176;51.140;6.290;2022-09-09T09:29:18;100174.25;;;21.83;61.04
25232;BME280;13176;51.140;6.290;2022-09-09T09:31:51;100161.06;;;21.93;60.35
25232;BME280;13176;51.140;6.290;2022-09-09T09:34:18;100169.97;;;22.05;60.31
25232;BME280;13176;51.140;6.290;2022-09-09T09:36:51;100172.00;;;22.01;60.21
25232;BME280;13176;51.140;6.290;2022-09-09T09:39:29;100160.97;;;21.95;60.12
25232;BME280;13176;51.140;6.290;2022-09-09T09:42:17;100173.72;;;22.02;59.37
25232;BME280;13176;51.140;6.290;2022-09-09T09:44:48;100177.66;;;22.09;59.24
25232;BME280;13176;51.140;6.290;2022-09-09T09:47:20;100174.88;;;21.98;59.52
25232;BME280;13176;51.140;6.290;2022-09-09T09:49:57;100186.06;;;22.03;59.68
25232;BME280;13176;51.140;6.290;2022-09-09T09:52:28;100154.44;;;21.87;59.80
25232;BME280;13176;51.140;6.290;2022-09-09T09:54:57;100160.63;;;21.99;60.10
25232;BME280;13176;51.140;6.290;2022-09-09T09:57:31;100170.44;;;21.99;60.41
25232;BME280;13176;51.140;6.290;2022-09-09T10:00:13;100166.16;;;22.21;60.24
25232;BME280;13176;51.140;6.290;2022-09-09T10:02:41;100164.56;;;22.31;59.66
25232;BME280;13176;51.140;6.290;2022-09-09T10:08:12;100157.75;;;22.27;57.94
25232;BME280;13176;51.140;6.290;2022-09-09T10:13:42;100152.97;;;22.20;57.39
25232;BME280;13176;51.140;6.290;2022-09-09T10:19:03;100188.41;;;22.20;57.42
25232;BME280;13176;51.140;6.290;2022-09-09T10:30:00;100181.81;;;22.38;59.00
25232;BME280;13176;51.140;6.290;2022-09-09T10:35:35;100177.25;;;22.03;57.69
25232;BME280;13176;51.140;6.290;2022-09-09T10:38:21;100159.16;;;21.95;58.03
25232;BME280;13176;51.140;6.290;2022-09-09T10:46:22;100172.34;;;22.34;57.86
25232;BME280;13176;51.140;6.290;2022-09-09T10:54:36;100177.88;;;22.56;57.97
25232;BME280;13176;51.140;6.290;2022-09-09T10:57:31;100150.09;;;22.48;57.85
25232;BME280;13176;51.140;6.290;2022-09-09T11:00:10;100168.03;;;22.69;58.90
25232;BME280;13176;51.140;6.290;2022-09-09T11:02:41;100130.84;;;22.32;58.15
25232;BME280;13176;51.140;6.290;2022-09-09T11:05:30;100177.16;;;22.78;57.27
25232;BME280;13176;51.140;6.290;2022-09-09T11:08:04;100168.44;;;22.88;58.43
25232;BME280;13176;51.140;6.290;2022-09-09T11:11:01;100172.59;;;22.92;56.91
25232;BME280;13176;51.140;6.290;2022-09-09T11:18:47;100157.69;;;22.41;57.50
25232;BME280;13176;51.140;6.290;2022-09-09T11:21:23;100174.25;;;22.57;58.38
25232;BME280;13176;51.140;6.290;2022-09-09T11:23:59;100173.19;;;22.60;58.84
25232;BME280;13176;51.140;6.290;2022-09-09T11:26:39;100156.88;;;22.64;58.56
25232;BME280;13176;51.140;6.290;2022-09-09T11:35:29;100176.69;;;22.96;57.88
25232;BME280;13176;51.140;6.290;2022-09-09T11:40:32;100168.09;;;22.32;57.72
25232;BME280;13176;51.140;6.290;2022-09-09T11:43:04;100168.09;;;22.32;57.67
25232;BME280;13176;51.140;6.290;2022-09-09T11:45:33;100175.19;;;22.31;59.11
25232;BME280;13176;51.140;6.290;2022-09-09T11:48:03;100177.03;;;22.31;60.56
25232;BME280;13176;51.140;6.290;2022-09-09T11:50:35;100188.91;;;22.00;63.74
25232;BME280;13176;51.140;6.290;2022-09-09T11:53:19;100167.22;;;21.82;66.08
25232;BME280;13176;51.140;6.290;2022-09-09T11:56:07;100163.16;;;21.76;67.49
25232;BME280;13176;51.140;6.290;2022-09-09T11:58:40;100186.31;;;21.74;66.26
25232;BME280;13176;51.140;6.290;2022-09-09T12:01:27;100187.72;;;21.80;67.38
25232;BME280;13176;51.140;6.290;2022-09-09T12:06:46;100195.59;;;21.55;71.26
25232;BME280;13176;51.140;6.290;2022-09-09T12:09:46;100203.97;;;20.82;75.88
25232;BME280;13176;51.140;6.290;2022-09-09T12:19:42;100166.50;;;20.32;86.26
25232;BME280;13176;51.140;6.290;2022-09-09T12:22:27;100172.38;;;20.37;86.61
25232;BME280;13176;51.140;6.290;2022-09-09T12:25:03;100207.38;;;20.56;85.84
25232;BME280;13176;51.140;6.290;2022-09-09T12:30:41;100201.31;;;20.68;86.82
25232;BME280;13176;51.140;6.290;2022-09-09T12:33:15;100175.38;;;20.73;86.48
25232;BME280;13176;51.140;6.290;2022-09-09T12:35:45;100206.22;;;21.02;85.76
25232;BME280;13176;51.140;6.290;2022-09-09T12:38:22;100176.03;;;21.17;85.03
25232;BME280;13176;51.140;6.290;2022-09-09T12:40:56;100185.09;;;21.27;83.71
25232;BME280;13176;51.140;6.290;2022-09-09T12:43:24;100175.06;;;21.18;84.11
25232;BME280;13176;51.140;6.290;2022-09-09T12:46:03;100148.28;;;21.35;83.58
25232;BME280;13176;51.140;6.290;2022-09-09T12:48:37;100163.09;;;21.51;82.87
25232;BME280;13176;51.140;6.290;2022-09-09T12:51:15;100108.03;;;21.41;82.99
25232;BME280;13176;51.140;6.290;2022-09-09T12:53:44;100130.84;;;21.70;82.84
25232;BME280;13176;51.140;6.290;2022-09-09T12:56:20;100157.44;;;21.94;81.97
25232;BME280;13176;51.140;6.290;2022-09-09T12:58:49;100163.41;;;22.10;82.44
25232;BME280;13176;51.140;6.290;2022-09-09T13:01:28;100125.66;;;21.93;80.73
25232;BME280;13176;51.140;6.290;2022-09-09T13:03:56;100131.09;;;22.16;82.58
25232;BME280;13176;51.140;6.290;2022-09-09T13:08:57;100152.16;;;22.19;79.00
25232;BME280;13176;51.140;6.290;2022-09-09T13:11:37;100122.59;;;22.11;79.73
25232;BME280;13176;51.140;6.290;2022-09-09T13:14:05;100141.41;;;22.08;78.54
25232;BME280;13176;51.140;6.290;2022-09-09T13:16:34;100125.09;;;22.25;79.74
25232;BME280;13176;51.140;6.290;2022-09-09T13:19:09;100137.03;;;22.07;76.85
25232;BME280;13176;51.140;6.290;2022-09-09T13:21:40;100138.09;;;22.17;77.35
25232;BME280;13176;51.140;6.290;2022-09-09T13:24:28;100147.47;;;22.35;79.54
25232;BME280;13176;51.140;6.290;2022-09-09T13:26:57;100110.25;;;22.35;80.71
25232;BME280;13176;51.140;6.290;2022-09-09T13:29:24;100120.53;;;22.52;80.04
25232;BME280;13176;51.140;6.290;2022-09-09T13:31:53;100125.53;;;22.44;78.06
25232;BME280;13176;51.140;6.290;2022-09-09T13:34:30;100126.81;;;22.26;77.43
25232;BME280;13176;51.140;6.290;2022-09-09T13:37:01;100117.44;;;22.33;77.05
25232;BME280;13176;51.140;6.290;2022-09-09T13:39:28;100113.94;;;22.08;74.99
25232;BME280;13176;51.140;6.290;2022-09-09T13:41:55;100108.75;;;22.06;74.98
25232;BME280;13176;51.140;6.290;2022-09-09T13:44:28;100116.94;;;21.79;73.48
25232;BME280;13176;51.140;6.290;2022-09-09T13:47:02;100161.41;;;20.97;74.29
25232;BME280;13176;51.140;6.290;2022-09-09T13:49:35;100187.34;;;20.38;78.49
25232;BME280;13176;51.140;6.290;2022-09-09T13:52:14;100190.22;;;20.06;79.78
25232;BME280;13176;51.140;6.290;2022-09-09T13:54:46;100181.88;;;19.68;82.80
25232;BME280;13176;51.140;6.290;2022-09-09T13:57:21;100165.50;;;19.33;85.84
25232;BME280;13176;51.140;6.290;2022-09-09T13:59:50;100152.66;;;19.27;85.86
25232;BME280;13176;51.140;6.290;2022-09-09T14:02:30;100174.59;;;19.29;87.07
25232;BME280;13176;51.140;6.290;2022-09-09T14:04:57;100179.16;;;19.10;86.78
25232;BME280;13176;51.140;6.290;2022-09-09T14:07:23;100155.22;;;18.82;88.16
25232;BME280;13176;51.140;6.290;2022-09-09T14:09:51;100169.13;;;18.70;88.94
25232;BME280;13176;51.140;6.290;2022-09-09T14:12:18;100162.22;;;18.52;90.65
25232;BME280;13176;51.140;6.290;2022-09-09T14:14:44;100127.41;;;18.44;89.66
25232;BME280;13176;51.140;6.290;2022-09-09T14:17:11;100139.78;;;18.59;88.31
25232;BME280;13176;51.140;6.290;2022-09-09T14:19:37;100129.88;;;18.78;89.53
25232;BME280;13176;51.140;6.290;2022-09-09T14:22:04;100147.25;;;19.13;90.72
25232;BME280;13176;51.140;6.290;2022-09-09T14:24:30;100142.84;;;19.29;91.05
25232;BME280;13176;51.140;6.290;2022-09-09T14:26:57;100126.03;;;19.44;90.25
25232;BME280;13176;51.140;6.290;2022-09-09T14:29:23;100145.22;;;19.76;89.27
25232;BME280;13176;51.140;6.290;2022-09-09T14:31:51;100150.31;;;20.09;86.96
25232;BME280;13176;51.140;6.290;2022-09-09T14:34:17;100139.22;;;20.16;86.41
25232;BME280;13176;51.140;6.290;2022-09-09T14:36:44;100142.44;;;20.21;86.75
25232;BME280;13176;51.140;6.290;2022-09-09T14:39:11;100112.34;;;20.22;84.98
25232;BME280;13176;51.140;6.290;2022-09-09T14:41:38;100131.06;;;20.47;85.53
25232;BME280;13176;51.140;6.290;2022-09-09T14:44:04;100124.03;;;20.60;85.68
25232;BME280;13176;51.140;6.290;2022-09-09T14:46:31;100134.06;;;20.83;85.46
25232;BME280;13176;51.140;6.290;2022-09-09T14:48:59;100129.09;;;20.91;84.89
25232;BME280;13176;51.140;6.290;2022-09-09T14:51:26;100138.84;;;21.17;83.87
25232;BME280;13176;51.140;6.290;2022-09-09T14:53:57;100110.09;;;21.11;84.34
25232;BME280;13176;51.140;6.290;2022-09-09T14:56:27;100112.59;;;21.39;84.75
25232;BME280;13176;51.140;6.290;2022-09-09T14:58:54;100124.69;;;21.69;83.23